Time;durP1;ratioP1;P1;durP2;ratioP2;P2;SDS_P1;SDS_P2;PMS_P1;PMS_P2;Temp;Humidity;BMP_temperature;BMP_pressure;BME280_temperature;BME280_humidity;BME280_pressure;Samples;Min_cycle;Max_cycle;Signal;HPM_P1;HPM_P2
2024/01/18 05:32:13;;;;;;;0.15;0.15;;;2.40;93.40;;;;;;5118346;23;20066;-83
2024/01/18 05:34:40;;;;;;;0.10;0.10;;;2.50;93.80;;;;;;4990838;28;20487;-84
2024/01/18 05:37:06;;;;;;;0.10;0.10;;;2.50;93.40;;;;;;4997929;28;20030;-84
2024/01/18 05:39:31;;;;;;;0.10;0.10;;;2.50;93.50;;;;;;4998977;28;20033;-84
2024/01/18 05:41:57;;;;;;;0.10;0.10;;;2.50;93.30;;;;;;4994175;28;20455;-83
2024/01/18 05:44:22;;;;;;;0.10;0.10;;;2.50;93.50;;;;;;4979490;28;20022;-83
2024/01/18 05:46:48;;;;;;;0.10;0.10;;;2.50;93.20;;;;;;4979204;28;20050;-84
2024/01/18 05:49:14;;;;;;;0.13;0.13;;;2.50;93.50;;;;;;4990786;28;20022;-81
2024/01/18 05:51:40;;;;;;;0.10;0.10;;;2.50;93.60;;;;;;4998943;28;20038;-85
2024/01/18 05:54:06;;;;;;;0.13;0.13;;;2.60;93.60;;;;;;4997377;28;20034;-89
2024/01/18 05:56:32;;;;;;;0.10;0.10;;;2.60;93.40;;;;;;4997196;28;20030;-87
2024/01/18 05:58:58;;;;;;;0.10;0.10;;;2.70;93.20;;;;;;4998754;28;20031;-86
2024/01/18 06:01:23;;;;;;;0.20;0.20;;;2.70;93.40;;;;;;4995694;28;20063;-88
2024/01/18 06:03:49;;;;;;;0.17;0.17;;;2.60;92.70;;;;;;4997971;28;20022;-84
2024/01/18 06:06:15;;;;;;;0.10;0.10;;;2.60;93.00;;;;;;4998173;28;20030;-86
2024/01/18 06:08:40;;;;;;;0.10;0.10;;;2.60;92.90;;;;;;4998299;28;20030;-83
2024/01/18 06:11:07;;;;;;;0.20;0.20;;;2.70;92.90;;;;;;4996075;28;20034;-79
2024/01/18 06:13:32;;;;;;;0.10;0.10;;;2.80;93.10;;;;;;4979017;28;20034;-81
2024/01/18 06:15:58;;;;;;;0.10;0.10;;;2.80;92.50;;;;;;4978646;28;20039;-84
2024/01/18 06:18:24;;;;;;;0.10;0.10;;;2.80;92.30;;;;;;4985778;28;20034;-80
2024/01/18 06:20:50;;;;;;;0.10;0.10;;;2.80;92.60;;;;;;4978953;28;20031;-80
2024/01/18 06:23:15;;;;;;;0.20;0.20;;;2.80;92.50;;;;;;4978726;28;20031;-84
2024/01/18 06:25:41;;;;;;;0.10;0.10;;;2.80;92.50;;;;;;4977794;28;20130;-85
2024/01/18 06:28:07;;;;;;;0.10;0.10;;;2.90;92.60;;;;;;4981788;28;20030;-82
2024/01/18 06:30:33;;;;;;;0.10;0.10;;;2.80;92.40;;;;;;4996805;28;20050;-86
2024/01/18 06:32:58;;;;;;;0.20;0.20;;;2.80;92.40;;;;;;4991337;28;20026;-81
2024/01/18 06:35:24;;;;;;;0.10;0.10;;;2.80;92.60;;;;;;4994094;28;20497;-81
2024/01/18 06:37:49;;;;;;;0.10;0.10;;;2.80;92.50;;;;;;4996894;28;20053;-81
2024/01/18 06:40:17;;;;;;;0.10;0.10;;;2.80;92.80;;;;;;4996340;28;20037;-81
2024/01/18 06:42:43;;;;;;;0.10;0.10;;;2.80;92.70;;;;;;4996415;28;20054;-79
2024/01/18 06:45:09;;;;;;;0.10;0.10;;;2.80;92.60;;;;;;4992538;28;20029;-81
2024/01/18 06:47:35;;;;;;;0.20;0.20;;;2.80;92.60;;;;;;4985840;28;20060;-79
2024/01/18 06:50:01;;;;;;;0.10;0.10;;;2.80;92.50;;;;;;4993000;28;20038;-80
2024/01/18 06:52:26;;;;;;;0.10;0.10;;;2.80;92.30;;;;;;4996189;28;20023;-80
2024/01/18 06:54:52;;;;;;;0.10;0.10;;;2.80;92.70;;;;;;4992597;28;20034;-80
2024/01/18 06:57:18;;;;;;;0.20;0.20;;;2.80;92.80;;;;;;4978058;28;20019;-81
2024/01/18 06:59:48;;;;;;;0.10;0.10;;;2.80;92.70;;;;;;4980168;28;20512;-81
2024/01/18 07:02:14;;;;;;;0.10;0.10;;;2.90;92.80;;;;;;4997355;28;20023;-81
2024/01/18 07:04:40;;;;;;;0.10;0.10;;;2.90;92.80;;;;;;4985198;28;20046;-81
2024/01/18 07:07:06;;;;;;;0.17;0.17;;;2.90;92.70;;;;;;4977016;28;20077;-81
2024/01/18 07:09:32;;;;;;;0.20;0.20;;;3.00;92.80;;;;;;4978103;28;20058;-81
2024/01/18 07:11:58;;;;;;;0.10;0.10;;;2.90;92.20;;;;;;4976739;28;20410;-80
2024/01/18 07:14:24;;;;;;;0.10;0.10;;;3.00;92.80;;;;;;4977722;28;20039;-81
2024/01/18 07:16:49;;;;;;;0.20;0.20;;;3.00;92.70;;;;;;4977988;28;20023;-81
2024/01/18 07:19:15;;;;;;;0.10;0.10;;;3.00;92.60;;;;;;4977694;28;20091;-81
2024/01/18 07:21:40;;;;;;;0.10;0.10;;;2.90;92.20;;;;;;4978146;28;20049;-81
2024/01/18 07:24:06;;;;;;;0.15;0.15;;;2.90;92.50;;;;;;4977592;28;20034;-80
2024/01/18 07:26:32;;;;;;;0.20;0.20;;;2.90;92.30;;;;;;4978089;28;20023;-81
2024/01/18 07:28:57;;;;;;;0.13;0.13;;;2.90;92.50;;;;;;4976806;28;20090;-81
2024/01/18 07:31:23;;;;;;;0.20;0.20;;;3.00;92.80;;;;;;4977553;28;20491;-81
2024/01/18 07:33:50;;;;;;;0.10;0.10;;;3.00;92.60;;;;;;4988609;28;20026;-81
2024/01/18 07:36:17;;;;;;;0.15;0.15;;;2.90;92.20;;;;;;4992271;28;20023;-81
2024/01/18 07:38:43;;;;;;;0.10;0.10;;;3.00;92.50;;;;;;4992425;28;20614;-81
2024/01/18 07:41:09;;;;;;;0.20;0.20;;;2.90;92.40;;;;;;4996168;28;20026;-80
2024/01/18 07:43:34;;;;;;;0.10;0.10;;;3.00;92.60;;;;;;4991940;28;20038;-80
2024/01/18 07:46:00;;;;;;;0.10;0.10;;;3.00;92.70;;;;;;4977776;28;20027;-81
2024/01/18 07:48:26;;;;;;;0.10;0.10;;;3.00;92.10;;;;;;4977063;28;20446;-80
2024/01/18 07:50:52;;;;;;;0.10;0.10;;;3.10;92.50;;;;;;4976458;28;20038;-80
2024/01/18 07:53:18;;;;;;;0.20;0.20;;;3.00;92.00;;;;;;4990261;28;20027;-80
2024/01/18 07:55:44;;;;;;;0.17;0.17;;;3.00;92.00;;;;;;4982733;28;20031;-80
2024/01/18 07:58:10;;;;;;;0.10;0.10;;;3.00;92.40;;;;;;4984108;28;20497;-81
2024/01/18 08:00:36;;;;;;;0.10;0.10;;;3.10;92.30;;;;;;4993407;28;20022;-80
2024/01/18 08:03:01;;;;;;;0.10;0.10;;;3.10;92.00;;;;;;5003269;28;20402;-81
2024/01/18 08:05:30;;;;;;;0.20;0.20;;;3.00;91.80;;;;;;4984588;28;20035;-80
2024/01/18 08:07:56;;;;;;;0.10;0.10;;;3.10;92.30;;;;;;4982873;28;20112;-80
2024/01/18 08:10:23;;;;;;;0.13;0.13;;;3.10;92.10;;;;;;4993748;28;20038;-80
2024/01/18 08:12:49;;;;;;;0.10;0.10;;;3.20;91.90;;;;;;5001553;28;20703;-80
2024/01/18 08:15:15;;;;;;;0.10;0.10;;;3.20;91.80;;;;;;4990860;28;20102;-80
2024/01/18 08:17:42;;;;;;;0.20;0.20;;;3.20;91.70;;;;;;4983891;28;20026;-80
2024/01/18 08:20:12;;;;;;;0.10;0.10;;;3.20;91.80;;;;;;4983310;28;20447;-80
2024/01/18 08:22:42;;;;;;;0.20;0.20;;;3.20;91.70;;;;;;4983857;28;20031;-81
2024/01/18 08:25:10;;;;;;;0.20;0.20;;;3.40;92.10;;;;;;4999069;28;20030;-80
2024/01/18 08:27:37;;;;;;;0.10;0.10;;;3.50;91.80;;;;;;4983424;28;20031;-80
2024/01/18 08:30:04;;;;;;;0.17;0.17;;;3.60;92.00;;;;;;4983747;28;20461;-80
2024/01/18 08:32:34;;;;;;;0.13;0.13;;;3.60;91.60;;;;;;4999399;28;20062;-80
2024/01/18 08:35:06;;;;;;;0.15;0.15;;;3.60;91.10;;;;;;4991549;28;20030;-81
2024/01/18 08:37:32;;;;;;;0.20;0.20;;;3.60;91.30;;;;;;4983934;28;20487;-80
2024/01/18 08:39:58;;;;;;;0.10;0.10;;;3.70;91.60;;;;;;5001634;28;20031;-80
2024/01/18 08:42:24;;;;;;;0.20;0.20;;;3.70;91.40;;;;;;4996892;28;20018;-80
2024/01/18 08:44:50;;;;;;;0.20;0.20;;;3.70;91.40;;;;;;5002005;28;20037;-80
2024/01/18 08:47:16;;;;;;;0.10;0.10;;;3.70;91.30;;;;;;4992854;28;20023;-80
2024/01/18 08:49:42;;;;;;;0.10;0.10;;;3.70;91.00;;;;;;4982116;28;20077;-80
2024/01/18 08:52:07;;;;;;;0.10;0.10;;;3.80;91.60;;;;;;4983801;28;20100;-80
2024/01/18 08:54:33;;;;;;;0.10;0.10;;;3.70;91.20;;;;;;4987088;28;20066;-80
2024/01/18 08:56:59;;;;;;;0.10;0.10;;;3.80;91.50;;;;;;4983590;28;20027;-80
2024/01/18 08:59:24;;;;;;;0.10;0.10;;;3.70;91.00;;;;;;4983661;28;20081;-81
2024/01/18 09:01:50;;;;;;;0.10;0.10;;;3.70;90.70;;;;;;5001929;28;20486;-81
2024/01/18 09:04:17;;;;;;;0.13;0.13;;;3.70;91.10;;;;;;4987580;28;20041;-80
2024/01/18 09:06:45;;;;;;;0.10;0.10;;;3.70;91.00;;;;;;4980233;28;20125;-80
2024/01/18 09:09:11;;;;;;;0.10;0.10;;;3.60;90.10;;;;;;4985821;28;20591;-80
2024/01/18 09:11:38;;;;;;;0.20;0.20;;;3.70;91.20;;;;;;4998848;28;20053;-80
2024/01/18 09:14:04;;;;;;;0.20;0.20;;;3.80;91.30;;;;;;4998445;28;20023;-80
2024/01/18 09:16:33;;;;;;;0.20;0.20;;;3.80;91.00;;;;;;4983382;28;20050;-80
2024/01/18 09:18:59;;;;;;;0.10;0.10;;;3.70;90.80;;;;;;4978900;28;20541;-80
2024/01/18 09:21:25;;;;;;;0.15;0.15;;;3.90;91.20;;;;;;4980173;28;20023;-80
2024/01/18 09:23:51;;;;;;;0.10;0.10;;;3.80;90.90;;;;;;4978995;28;20070;-80
2024/01/18 09:26:17;;;;;;;0.20;0.20;;;3.90;91.10;;;;;;4979906;28;20486;-80
2024/01/18 09:28:43;;;;;;;0.17;0.17;;;4.00;91.10;;;;;;4979975;28;20027;-79
2024/01/18 09:31:10;;;;;;;0.10;0.10;;;4.00;90.90;;;;;;4979726;28;20092;-80
2024/01/18 09:33:39;;;;;;;0.13;0.13;;;3.90;90.80;;;;;;4989061;28;20029;-80
2024/01/18 09:36:05;;;;;;;0.20;0.20;;;3.90;90.50;;;;;;4998246;28;20102;-81
2024/01/18 09:38:33;;;;;;;0.15;0.15;;;3.90;90.60;;;;;;4995378;28;20112;-80
2024/01/18 09:41:05;;;;;;;0.15;0.15;;;3.90;90.50;;;;;;4991170;28;20042;-80
2024/01/18 09:43:39;;;;;;;0.10;0.10;;;4.00;90.60;;;;;;4999392;28;20027;-80
2024/01/18 09:46:06;;;;;;;0.10;0.10;;;4.00;90.60;;;;;;4993222;28;20409;-80
2024/01/18 09:48:36;;;;;;;0.20;0.20;;;4.10;91.00;;;;;;4994685;28;20027;-80
2024/01/18 09:51:06;;;;;;;0.10;0.10;;;4.10;90.40;;;;;;4979270;28;20057;-80
2024/01/18 09:53:32;;;;;;;0.10;0.10;;;4.20;90.70;;;;;;4978485;28;20427;-80
2024/01/18 09:56:14;;;;;;;0.20;0.20;;;4.00;89.90;;;;;;4993313;28;20032;-80
2024/01/18 09:58:40;;;;;;;0.10;0.10;;;4.00;90.20;;;;;;4998894;28;20022;-80
2024/01/18 10:01:16;;;;;;;0.13;0.13;;;4.00;90.20;;;;;;4990317;28;20030;-80
2024/01/18 10:03:42;;;;;;;0.10;0.10;;;4.10;90.40;;;;;;4989391;28;20038;-80
2024/01/18 10:06:08;;;;;;;0.17;0.17;;;4.10;90.30;;;;;;4981168;28;20031;-80
2024/01/18 10:08:33;;;;;;;0.20;0.20;;;4.10;89.70;;;;;;4979434;28;20027;-80
2024/01/18 10:10:59;;;;;;;0.20;0.20;;;4.20;89.80;;;;;;4983825;28;20085;-80
2024/01/18 10:13:25;;;;;;;0.10;0.10;;;4.20;89.70;;;;;;4985018;28;20030;-80
2024/01/18 10:15:51;;;;;;;0.10;0.10;;;4.30;90.00;;;;;;4979156;28;20415;-80
2024/01/18 10:18:18;;;;;;;0.10;0.10;;;4.40;90.40;;;;;;4977852;28;20027;-80
2024/01/18 10:20:45;;;;;;;0.20;0.20;;;4.30;89.40;;;;;;4979238;28;20031;-80
2024/01/18 10:23:10;;;;;;;0.20;0.20;;;4.30;89.40;;;;;;4979030;28;20034;-80
2024/01/18 10:25:36;;;;;;;0.20;0.20;;;4.40;89.60;;;;;;4997727;28;20022;-80
2024/01/18 10:28:02;;;;;;;0.10;0.10;;;4.50;89.60;;;;;;4998456;28;20023;-80
2024/01/18 10:30:28;;;;;;;0.20;0.20;;;4.50;88.80;;;;;;4996767;28;20409;-80
2024/01/18 10:32:54;;;;;;;0.10;0.10;;;4.50;88.40;;;;;;4995755;28;20030;-80
2024/01/18 10:35:24;;;;;;;0.20;0.20;;;4.70;88.70;;;;;;4998438;28;20033;-80
2024/01/18 10:38:03;;;;;;;0.13;0.13;;;4.70;89.00;;;;;;4998074;28;20026;-80
2024/01/18 10:40:32;;;;;;;0.20;0.20;;;4.80;88.60;;;;;;4996536;28;20030;-80
2024/01/18 10:42:59;;;;;;;0.10;0.10;;;4.80;88.60;;;;;;4980429;28;20487;-80
2024/01/18 10:45:28;;;;;;;0.20;0.20;;;4.90;88.50;;;;;;4978530;28;20073;-79
2024/01/18 10:47:56;;;;;;;0.10;0.10;;;4.90;88.50;;;;;;4997716;28;20131;-79
2024/01/18 10:50:22;;;;;;;0.10;0.10;;;4.80;88.30;;;;;;4996502;28;20076;-79
2024/01/18 10:52:48;;;;;;;0.10;0.10;;;4.90;88.30;;;;;;4992076;28;20037;-79
2024/01/18 10:55:14;;;;;;;0.10;0.10;;;5.00;88.10;;;;;;4978434;28;20109;-79
2024/01/18 10:57:43;;;;;;;0.10;0.10;;;5.10;88.20;;;;;;4978187;28;20534;-79
2024/01/18 11:00:09;;;;;;;0.10;0.10;;;5.20;88.60;;;;;;4984559;28;20025;-80
2024/01/18 11:02:40;;;;;;;0.10;0.10;;;5.20;88.50;;;;;;4986015;28;20026;-80
2024/01/18 11:05:09;;;;;;;0.10;0.10;;;5.10;87.90;;;;;;4997677;28;20077;-80
2024/01/18 11:07:42;;;;;;;0.10;0.10;;;5.10;88.00;;;;;;4997600;28;20031;-79
2024/01/18 11:10:11;;;;;;;0.20;0.20;;;5.00;87.90;;;;;;4993045;28;20867;-85
2024/01/18 11:12:42;;;;;;;0.10;0.10;;;5.10;88.20;;;;;;4976611;28;20113;-82
2024/01/18 11:15:10;;;;;;;0.20;0.20;;;5.10;88.20;;;;;;4990485;28;20025;-81
2024/01/18 11:17:45;;;;;;;0.10;0.10;;;5.00;87.60;;;;;;4992728;28;20548;-81
2024/01/18 11:20:11;;;;;;;0.10;0.10;;;5.20;88.10;;;;;;4990917;28;20043;-81
2024/01/18 11:22:37;;;;;;;0.20;0.20;;;5.20;87.50;;;;;;4977941;28;20031;-81
2024/01/18 11:25:04;;;;;;;0.10;0.10;;;5.20;87.40;;;;;;4978023;28;20407;-81
2024/01/18 11:27:43;;;;;;;0.20;0.20;;;5.20;87.90;;;;;;4978024;28;20027;-82
2024/01/18 11:30:35;;;;;;;0.10;0.10;;;5.10;86.70;;;;;;4977063;28;20099;-82
2024/01/18 11:33:06;;;;;;;0.10;0.10;;;5.00;87.00;;;;;;4982657;28;20018;-83
2024/01/18 11:35:33;;;;;;;0.13;0.13;;;5.00;87.00;;;;;;4993832;28;20019;-83
2024/01/18 11:38:18;;;;;;;0.10;0.10;;;5.00;87.80;;;;;;4977994;28;20092;-82
2024/01/18 11:40:44;;;;;;;0.10;0.10;;;4.90;88.00;;;;;;4986940;28;20037;-83
2024/01/18 11:43:11;;;;;;;0.20;0.20;;;4.80;87.70;;;;;;4996817;28;20080;-81
2024/01/18 11:45:37;;;;;;;0.10;0.10;;;4.80;87.70;;;;;;4995824;28;20122;-82
2024/01/18 11:48:03;;;;;;;0.20;0.20;;;4.80;87.40;;;;;;4978819;28;20070;-80
2024/01/18 11:50:29;;;;;;;0.10;0.10;;;4.90;87.30;;;;;;4977574;28;20027;-81
2024/01/18 11:52:54;;;;;;;0.10;0.10;;;5.00;86.90;;;;;;4977269;28;20035;-80
2024/01/18 11:55:21;;;;;;;0.20;0.20;;;5.10;87.80;;;;;;4977366;28;20058;-78
2024/01/18 11:57:48;;;;;;;0.10;0.10;;;5.30;87.60;;;;;;4986174;28;20018;-80
2024/01/18 12:00:14;;;;;;;0.10;0.10;;;5.30;85.50;;;;;;4995225;28;20027;-80
2024/01/18 12:02:42;;;;;;;0.20;0.20;;;5.40;85.30;;;;;;4996691;28;20094;-89
2024/01/18 12:05:08;;;;;;;0.20;0.20;;;5.40;84.20;;;;;;4992054;28;20026;-86
2024/01/18 12:07:34;;;;;;;0.10;0.10;;;5.30;83.40;;;;;;4977645;28;20732;-79
2024/01/18 12:10:04;;;;;;;0.20;0.20;;;5.40;84.00;;;;;;4977144;28;20031;-82
2024/01/18 12:12:30;;;;;;;0.10;0.10;;;5.40;82.40;;;;;;4982003;28;20025;-82
2024/01/18 12:14:55;;;;;;;0.20;0.20;;;5.30;81.70;;;;;;4994225;28;20101;-81
2024/01/18 12:17:21;;;;;;;0.20;0.20;;;5.30;81.40;;;;;;4993414;28;20026;-82
2024/01/18 12:19:50;;;;;;;0.10;0.10;;;5.40;82.30;;;;;;4989723;28;20022;-81
2024/01/18 12:22:18;;;;;;;0.10;0.10;;;5.40;80.80;;;;;;4976134;28;20027;-77
2024/01/18 12:24:47;;;;;;;0.20;0.20;;;5.40;79.50;;;;;;4994313;28;20045;-77
2024/01/18 12:27:14;;;;;;;0.10;0.10;;;5.30;78.60;;;;;;4992684;28;20109;-76
2024/01/18 12:29:40;;;;;;;0.10;0.10;;;5.40;79.70;;;;;;4993705;28;20030;-77
2024/01/18 12:32:08;;;;;;;0.10;0.10;;;5.40;78.30;;;;;;4995954;28;20054;-77
2024/01/18 12:34:34;;;;;;;0.10;0.10;;;5.40;78.00;;;;;;4993864;28;20080;-77
2024/01/18 12:37:01;;;;;;;0.10;0.10;;;5.50;78.80;;;;;;4995466;28;20028;-79
2024/01/18 12:39:27;;;;;;;0.20;0.20;;;5.40;76.30;;;;;;4993360;28;20025;-77
2024/01/18 12:41:53;;;;;;;0.10;0.10;;;5.50;76.70;;;;;;4996290;28;20054;-77
2024/01/18 12:44:20;;;;;;;0.10;0.10;;;5.50;76.50;;;;;;5011986;28;20028;-76
2024/01/18 12:46:54;;;;;;;0.10;0.10;;;5.50;76.90;;;;;;4999238;28;20030;-77
2024/01/18 12:49:20;;;;;;;0.20;0.20;;;5.50;76.50;;;;;;4997135;28;20026;-78
2024/01/18 12:51:57;;;;;;;0.10;0.10;;;5.50;74.60;;;;;;4999489;28;20037;-77
2024/01/18 12:54:24;;;;;;;0.10;0.10;;;5.60;75.80;;;;;;4996432;28;20022;-77
2024/01/18 12:56:57;;;;;;;0.10;0.10;;;5.50;73.80;;;;;;4996722;28;20022;-77
2024/01/18 12:59:25;;;;;;;0.20;0.20;;;5.60;74.50;;;;;;4998127;28;20057;-76
2024/01/18 13:01:51;;;;;;;0.10;0.10;;;5.60;75.20;;;;;;4997063;28;20022;-76
2024/01/18 13:04:28;;;;;;;0.13;0.13;;;5.50;72.60;;;;;;4998091;28;20034;-76
2024/01/18 13:06:58;;;;;;;0.10;0.10;;;5.50;73.80;;;;;;4998131;28;20026;-77
2024/01/18 13:09:27;;;;;;;0.10;0.10;;;5.50;74.00;;;;;;4997381;28;20030;-77
2024/01/18 13:11:53;;;;;;;0.20;0.20;;;5.50;76.00;;;;;;4997248;28;20032;-77
2024/01/18 13:14:19;;;;;;;0.20;0.20;;;5.50;73.80;;;;;;4996747;28;21222;-77
2024/01/18 13:16:46;;;;;;;0.10;0.10;;;5.50;73.20;;;;;;4998061;28;20470;-76
2024/01/18 13:19:16;;;;;;;0.10;0.10;;;5.50;72.60;;;;;;4998891;28;20475;-77
2024/01/18 13:21:44;;;;;;;0.10;0.10;;;5.50;72.30;;;;;;4994579;28;20474;-76
2024/01/18 13:24:11;;;;;;;0.20;0.20;;;5.50;72.10;;;;;;4999097;28;20065;-76
2024/01/18 13:26:38;;;;;;;0.10;0.10;;;5.60;74.00;;;;;;4998950;28;20101;-77
2024/01/18 13:29:05;;;;;;;0.20;0.20;;;5.60;75.60;;;;;;4996983;28;20372;-76
2024/01/18 13:31:32;;;;;;;0.10;0.10;;;5.60;73.00;;;;;;4997302;28;20069;-76
2024/01/18 13:33:58;;;;;;;0.10;0.10;;;5.60;74.20;;;;;;4996994;28;20018;-76
2024/01/18 13:36:25;;;;;;;0.20;0.20;;;5.50;70.90;;;;;;4998921;28;20094;-76
2024/01/18 13:38:50;;;;;;;0.20;0.20;;;5.50;70.70;;;;;;4995702;28;20018;-77
2024/01/18 13:41:17;;;;;;;0.10;0.10;;;5.60;72.50;;;;;;4996731;28;20034;-76
2024/01/18 13:43:43;;;;;;;0.10;0.10;;;5.60;73.60;;;;;;4997438;28;20028;-76
2024/01/18 13:46:09;;;;;;;0.10;0.10;;;5.50;69.30;;;;;;5010820;28;20718;-77
2024/01/18 13:48:35;;;;;;;0.10;0.10;;;5.50;73.10;;;;;;4997490;28;20030;-77
2024/01/18 13:51:01;;;;;;;0.10;0.10;;;5.50;70.30;;;;;;4998389;28;20026;-77
2024/01/18 13:53:27;;;;;;;0.10;0.10;;;5.40;68.40;;;;;;4995972;28;20030;-77
2024/01/18 13:55:54;;;;;;;0.10;0.10;;;5.40;66.60;;;;;;4997735;28;20019;-77
2024/01/18 13:58:20;;;;;;;0.20;0.20;;;5.50;68.00;;;;;;4995055;28;20526;-76
2024/01/18 14:01:06;;;;;;;0.17;0.17;;;5.50;68.60;;;;;;4996023;28;20058;-81
2024/01/18 14:03:32;;;;;;;0.10;0.10;;;5.50;70.10;;;;;;4987259;28;20061;-86
2024/01/18 14:05:58;;;;;;;0.10;0.10;;;5.50;68.10;;;;;;4996707;28;20031;-87
2024/01/18 14:08:23;;;;;;;0.10;0.10;;;5.50;71.20;;;;;;4997014;28;20023;-86
2024/01/18 14:10:49;;;;;;;0.10;0.10;;;5.40;67.50;;;;;;4998645;28;20050;-87
2024/01/18 14:13:16;;;;;;;0.10;0.10;;;5.30;68.80;;;;;;4998054;28;20375;-87
2024/01/18 14:15:41;;;;;;;0.13;0.13;;;5.40;66.20;;;;;;4995439;28;20014;-87
2024/01/18 14:18:10;;;;;;;0.10;0.10;;;5.30;65.20;;;;;;4997795;28;20033;-87
2024/01/18 14:20:35;;;;;;;0.10;0.10;;;5.30;66.00;;;;;;4998038;28;20026;-86
2024/01/18 14:23:01;;;;;;;0.10;0.10;;;5.40;69.80;;;;;;4997994;28;20110;-86
2024/01/18 14:25:27;;;;;;;0.17;0.17;;;5.30;66.80;;;;;;4995727;28;20121;-86
2024/01/18 14:27:52;;;;;;;0.10;0.10;;;5.30;65.30;;;;;;4997796;28;20033;-86
2024/01/18 14:30:18;;;;;;;0.10;0.10;;;5.20;63.80;;;;;;4995357;28;20030;-86
2024/01/18 14:32:43;;;;;;;0.10;0.10;;;5.20;66.00;;;;;;4996339;28;20033;-86
2024/01/18 14:35:09;;;;;;;0.10;0.10;;;5.20;63.70;;;;;;4997654;28;20018;-87
2024/01/18 14:37:38;;;;;;;0.10;0.10;;;5.20;63.20;;;;;;4996469;28;20034;-87
2024/01/18 14:40:08;;;;;;;0.17;0.17;;;5.20;67.10;;;;;;4997659;28;20015;-86
2024/01/18 14:42:34;;;;;;;0.13;0.13;;;5.20;64.20;;;;;;4994416;28;20022;-87
2024/01/18 14:45:00;;;;;;;0.20;0.20;;;5.20;66.20;;;;;;4995645;28;20455;-87
2024/01/18 14:47:27;;;;;;;0.20;0.20;;;5.20;65.50;;;;;;4996458;28;20081;-86
2024/01/18 14:49:53;;;;;;;0.15;0.15;;;5.10;63.80;;;;;;4992386;28;20033;-87
2024/01/18 14:52:20;;;;;;;0.20;0.20;;;5.20;64.50;;;;;;4995942;28;20037;-86
2024/01/18 14:54:53;;;;;;;0.10;0.10;;;5.10;65.00;;;;;;5012661;28;20026;-86
2024/01/18 14:57:20;;;;;;;0.20;0.20;;;5.10;63.60;;;;;;4995604;28;20026;-87
2024/01/18 14:59:49;;;;;;;0.10;0.10;;;5.20;68.90;;;;;;4996383;28;20054;-87
2024/01/18 15:02:15;;;;;;;0.10;0.10;;;5.20;66.20;;;;;;4993358;28;20026;-87
2024/01/18 15:04:42;;;;;;;0.20;0.20;;;5.10;65.60;;;;;;4995159;28;20022;-87
2024/01/18 15:07:09;;;;;;;0.10;0.10;;;5.20;67.20;;;;;;4994958;28;20022;-87
2024/01/18 15:09:35;;;;;;;0.20;0.20;;;5.10;66.00;;;;;;4996181;28;20433;-84
2024/01/18 15:12:04;;;;;;;0.20;0.20;;;5.10;67.30;;;;;;4996970;28;20034;-87
2024/01/18 15:14:30;;;;;;;0.20;0.20;;;5.00;66.60;;;;;;4996312;28;20022;-88
2024/01/18 15:16:55;;;;;;;0.20;0.20;;;5.00;64.60;;;;;;4995584;28;20034;-88
2024/01/18 15:19:21;;;;;;;0.10;0.10;;;5.00;65.10;;;;;;4995722;28;20023;-87
2024/01/18 15:21:47;;;;;;;0.10;0.10;;;4.90;65.60;;;;;;4994402;28;21517;-88
2024/01/18 15:24:14;;;;;;;0.10;0.10;;;5.00;69.90;;;;;;5003125;28;20030;-88
2024/01/18 15:26:42;;;;;;;0.10;0.10;;;5.00;67.90;;;;;;5004570;28;20033;-87
2024/01/18 15:29:08;;;;;;;0.13;0.13;;;5.00;67.60;;;;;;5002472;28;20030;-87
2024/01/18 15:31:34;;;;;;;0.10;0.10;;;4.90;66.70;;;;;;5004529;28;20093;-88
2024/01/18 15:34:03;;;;;;;0.10;0.10;;;4.90;68.20;;;;;;4995426;28;20023;-86
2024/01/18 15:36:29;;;;;;;0.20;0.20;;;4.80;66.70;;;;;;4995645;28;20026;-88
2024/01/18 15:38:55;;;;;;;0.10;0.10;;;4.80;67.30;;;;;;4994821;28;20014;-88
2024/01/18 15:41:21;;;;;;;0.10;0.10;;;4.70;68.90;;;;;;4995547;28;20022;-88
2024/01/18 15:43:47;;;;;;;0.15;0.15;;;4.70;67.70;;;;;;4994364;28;20054;-88
2024/01/18 15:46:22;;;;;;;0.10;0.10;;;4.70;70.80;;;;;;4996685;28;20441;-87
2024/01/18 15:48:53;;;;;;;0.10;0.10;;;4.60;69.60;;;;;;4996543;28;20049;-87
2024/01/18 15:51:22;;;;;;;0.20;0.20;;;4.50;69.60;;;;;;4996414;28;20026;-86
2024/01/18 15:53:48;;;;;;;0.10;0.10;;;4.50;71.50;;;;;;4994127;28;20128;-88
2024/01/18 15:56:14;;;;;;;0.10;0.10;;;4.40;66.70;;;;;;4996495;28;20026;-88
2024/01/18 15:58:40;;;;;;;0.20;0.20;;;4.30;68.70;;;;;;4994774;28;20874;-88
2024/01/18 16:01:05;;;;;;;0.10;0.10;;;4.30;70.50;;;;;;4997724;28;20042;-87
2024/01/18 16:03:32;;;;;;;0.10;0.10;;;4.30;71.80;;;;;;4992425;28;20022;-87
2024/01/18 16:05:57;;;;;;;0.17;0.17;;;4.20;68.70;;;;;;4996208;28;20029;-88
2024/01/18 16:08:23;;;;;;;0.10;0.10;;;4.10;68.30;;;;;;4996607;28;20473;-88
2024/01/18 16:10:48;;;;;;;0.10;0.10;;;4.00;71.00;;;;;;4994859;28;20042;-87
2024/01/18 16:13:14;;;;;;;0.10;0.10;;;3.90;70.20;;;;;;4987430;28;20027;-87
2024/01/18 16:15:40;;;;;;;0.10;0.10;;;3.90;70.30;;;;;;4982538;28;20034;-88
2024/01/18 16:18:05;;;;;;;0.10;0.10;;;3.80;69.70;;;;;;4998041;28;20026;-87
2024/01/18 16:20:31;;;;;;;0.13;0.13;;;3.80;69.30;;;;;;4997790;28;20384;-87
2024/01/18 16:22:58;;;;;;;0.10;0.10;;;3.70;71.00;;;;;;5000268;28;20085;-87
2024/01/18 16:25:23;;;;;;;0.15;0.15;;;3.70;71.50;;;;;;4997714;28;20045;-86
2024/01/18 16:27:49;;;;;;;0.10;0.10;;;3.70;70.90;;;;;;5000075;28;20564;-88
2024/01/18 16:30:14;;;;;;;0.10;0.10;;;3.60;72.70;;;;;;4999743;28;20077;-87
2024/01/18 16:32:40;;;;;;;0.10;0.10;;;3.60;73.60;;;;;;4997806;28;20479;-87
2024/01/18 16:35:06;;;;;;;0.20;0.20;;;3.50;73.80;;;;;;4999015;28;20054;-87
2024/01/18 16:37:31;;;;;;;0.10;0.10;;;3.50;71.80;;;;;;4998739;28;20466;-87
2024/01/18 16:39:57;;;;;;;0.20;0.20;;;3.40;73.30;;;;;;4997304;28;20018;-87
2024/01/18 16:42:23;;;;;;;0.10;0.10;;;3.40;74.80;;;;;;4997762;28;20026;-87
2024/01/18 16:44:48;;;;;;;0.15;0.15;;;3.40;74.10;;;;;;4998497;28;20022;-87
2024/01/18 16:47:14;;;;;;;0.20;0.20;;;3.40;74.50;;;;;;4998250;28;20049;-87
2024/01/18 16:49:40;;;;;;;0.20;0.20;;;3.30;73.90;;;;;;4998311;28;20085;-87
2024/01/18 16:52:06;;;;;;;0.20;0.20;;;3.20;74.90;;;;;;4998745;28;20034;-86
2024/01/18 16:54:31;;;;;;;0.20;0.20;;;3.20;76.90;;;;;;4990430;28;20036;-86
2024/01/18 16:56:58;;;;;;;0.10;0.10;;;3.10;77.00;;;;;;4995821;28;20030;-84
2024/01/18 16:59:23;;;;;;;0.20;0.20;;;3.00;78.10;;;;;;4995023;28;20042;-84
2024/01/18 17:01:49;;;;;;;0.10;0.10;;;3.00;78.10;;;;;;4998538;28;20030;-85
2024/01/18 17:04:15;;;;;;;0.10;0.10;;;2.90;79.10;;;;;;4997394;28;20034;-84
2024/01/18 17:06:40;;;;;;;0.20;0.20;;;2.90;78.50;;;;;;4998090;28;20034;-84
2024/01/18 17:09:10;;;;;;;0.20;0.20;;;2.90;79.10;;;;;;4998093;28;20034;-85
2024/01/18 17:11:36;;;;;;;0.13;0.13;;;2.80;79.50;;;;;;4996911;28;20034;-87
2024/01/18 17:14:02;;;;;;;0.10;0.10;;;2.70;80.20;;;;;;4998164;28;20050;-86
2024/01/18 17:16:28;;;;;;;0.10;0.10;;;2.70;80.80;;;;;;4997526;28;20034;-87
2024/01/18 17:18:54;;;;;;;0.20;0.20;;;2.70;80.50;;;;;;4998565;28;20386;-85
2024/01/18 17:21:23;;;;;;;0.20;0.20;;;2.60;80.40;;;;;;4998726;28;20363;-88
2024/01/18 17:23:48;;;;;;;0.20;0.20;;;2.50;80.70;;;;;;4998696;28;20045;-89
2024/01/18 17:26:14;;;;;;;0.20;0.20;;;2.50;80.90;;;;;;4998334;28;20034;-88
2024/01/18 17:28:42;;;;;;;0.10;0.10;;;2.50;81.10;;;;;;4996737;28;20037;-87
2024/01/18 17:31:12;;;;;;;0.10;0.10;;;2.30;81.30;;;;;;4988618;28;20050;-89
2024/01/18 17:33:38;;;;;;;0.20;0.20;;;2.30;81.40;;;;;;4996652;28;20019;-90
2024/01/18 17:36:08;;;;;;;0.20;0.20;;;2.30;81.20;;;;;;4996714;28;20026;-89
2024/01/18 17:38:33;;;;;;;0.20;0.20;;;2.20;81.10;;;;;;4996013;28;20022;-88
2024/01/18 17:40:59;;;;;;;0.20;0.20;;;2.20;82.20;;;;;;4997668;28;20031;-88
2024/01/18 17:43:24;;;;;;;0.20;0.20;;;2.20;82.10;;;;;;4994003;28;20085;-88
2024/01/18 17:45:50;;;;;;;0.10;0.10;;;2.20;82.40;;;;;;4998792;28;20474;-88
2024/01/18 17:48:16;;;;;;;0.20;0.20;;;2.10;81.50;;;;;;4998284;28;20057;-87
2024/01/18 17:50:46;;;;;;;0.20;0.20;;;2.00;81.60;;;;;;4997289;28;20030;-86
2024/01/18 17:53:12;;;;;;;0.20;0.20;;;2.00;82.20;;;;;;4992243;28;20033;-86
2024/01/18 17:55:38;;;;;;;0.10;0.10;;;1.90;81.40;;;;;;4998054;28;20134;-87
2024/01/18 17:58:03;;;;;;;0.20;0.20;;;2.00;82.50;;;;;;4995167;28;20165;-86
2024/01/18 18:00:29;;;;;;;0.10;0.10;;;1.90;82.10;;;;;;4996740;28;20483;-86
2024/01/18 18:02:54;;;;;;;0.20;0.20;;;1.90;81.80;;;;;;4998097;28;20023;-88
2024/01/18 18:05:20;;;;;;;0.13;0.13;;;1.80;81.40;;;;;;4996620;28;20019;-87
2024/01/18 18:07:46;;;;;;;0.10;0.10;;;1.80;82.60;;;;;;4995724;28;20018;-86
2024/01/18 18:10:11;;;;;;;0.10;0.10;;;1.90;82.50;;;;;;4997791;28;20049;-86
2024/01/18 18:12:39;;;;;;;0.20;0.20;;;1.80;82.50;;;;;;4997140;28;20018;-82
2024/01/18 18:15:06;;;;;;;0.10;0.10;;;1.80;83.30;;;;;;5005501;28;20031;-89
2024/01/18 18:17:31;;;;;;;0.10;0.10;;;1.80;83.30;;;;;;4997035;28;20019;-81
2024/01/18 18:19:57;;;;;;;0.10;0.10;;;1.80;83.90;;;;;;4997751;28;20472;-79
2024/01/18 18:22:22;;;;;;;0.20;0.20;;;1.70;83.70;;;;;;4993153;28;20042;-80
2024/01/18 18:24:49;;;;;;;0.10;0.10;;;1.70;83.60;;;;;;4977625;28;20038;-79
2024/01/18 18:27:14;;;;;;;0.20;0.20;;;1.70;82.90;;;;;;4978889;28;20018;-78